sensor_id;sensor_type;location;lat;lon;timestamp;pressure;altitude;pressure_sealevel;temperature;humidity
59608;BME280;45426;44.726;10.390;2022-08-25T00:01:16;100549.19;;;24.70;100.00
59608;BME280;45426;44.726;10.390;2022-08-25T00:03:42;100548.50;;;24.18;100.00
59608;BME280;45426;44.726;10.390;2022-08-25T00:06:09;100547.22;;;24.47;100.00
59608;BME280;45426;44.726;10.390;2022-08-25T00:08:36;100550.66;;;24.74;100.00
59608;BME280;45426;44.726;10.390;2022-08-25T00:11:14;100540.69;;;24.57;100.00
59608;BME280;45426;44.726;10.390;2022-08-25T00:13:42;100546.69;;;24.32;100.00
59608;BME280;45426;44.726;10.390;2022-08-25T00:16:12;100543.88;;;24.55;100.00
59608;BME280;45426;44.726;10.390;2022-08-25T00:18:39;100542.78;;;24.73;100.00
59608;BME280;45426;44.726;10.390;2022-08-25T00:21:05;100543.09;;;24.55;100.00
59608;BME280;45426;44.726;10.390;2022-08-25T00:23:31;100538.00;;;24.73;100.00
59608;BME280;45426;44.726;10.390;2022-08-25T00:25:56;100537.69;;;23.73;100.00
59608;BME280;45426;44.726;10.390;2022-08-25T00:28:22;100541.41;;;23.63;100.00
59608;BME280;45426;44.726;10.390;2022-08-25T00:30:48;100544.06;;;23.16;100.00
59608;BME280;45426;44.726;10.390;2022-08-25T00:33:15;100545.34;;;23.08;100.00
59608;BME280;45426;44.726;10.390;2022-08-25T00:35:41;100548.97;;;23.04;100.00
59608;BME280;45426;44.726;10.390;2022-08-25T00:38:08;100548.84;;;23.12;100.00
59608;BME280;45426;44.726;10.390;2022-08-25T00:40:35;100540.94;;;23.14;100.00
59608;BME280;45426;44.726;10.390;2022-08-25T00:43:02;100544.44;;;23.18;100.00
59608;BME280;45426;44.726;10.390;2022-08-25T00:45:27;100546.25;;;23.28;100.00
59608;BME280;45426;44.726;10.390;2022-08-25T00:47:53;100541.31;;;23.43;100.00
59608;BME280;45426;44.726;10.390;2022-08-25T00:50:20;100539.19;;;24.05;100.00
59608;BME280;45426;44.726;10.390;2022-08-25T00:52:50;100536.47;;;24.25;100.00
59608;BME280;45426;44.726;10.390;2022-08-25T00:55:23;100541.50;;;24.34;100.00
59608;BME280;45426;44.726;10.390;2022-08-25T00:58:15;100542.22;;;24.14;100.00
59608;BME280;45426;44.726;10.390;2022-08-25T01:00:46;100532.06;;;24.28;100.00
59608;BME280;45426;44.726;10.390;2022-08-25T01:03:13;100537.44;;;24.38;100.00
59608;BME280;45426;44.726;10.390;2022-08-25T01:05:39;100533.22;;;24.07;100.00
59608;BME280;45426;44.726;10.390;2022-08-25T01:08:06;100539.56;;;24.31;100.00
59608;BME280;45426;44.726;10.390;2022-08-25T01:10:34;100533.78;;;23.98;100.00
59608;BME280;45426;44.726;10.390;2022-08-25T01:13:06;100530.97;;;24.21;100.00
59608;BME280;45426;44.726;10.390;2022-08-25T01:15:33;100528.34;;;23.91;100.00
59608;BME280;45426;44.726;10.390;2022-08-25T01:17:59;100523.88;;;23.97;100.00
59608;BME280;45426;44.726;10.390;2022-08-25T01:20:27;100530.75;;;23.89;100.00
59608;BME280;45426;44.726;10.390;2022-08-25T01:22:53;100535.50;;;23.34;100.00
59608;BME280;45426;44.726;10.390;2022-08-25T01:28:06;100523.41;;;24.02;100.00
59608;BME280;45426;44.726;10.390;2022-08-25T01:30:32;100525.97;;;23.62;100.00
59608;BME280;45426;44.726;10.390;2022-08-25T01:32:58;100513.63;;;23.67;100.00
59608;BME280;45426;44.726;10.390;2022-08-25T01:35:23;100517.81;;;23.78;100.00
59608;BME280;45426;44.726;10.390;2022-08-25T01:37:49;100521.09;;;23.97;100.00
59608;BME280;45426;44.726;10.390;2022-08-25T01:40:14;100513.97;;;24.19;100.00
59608;BME280;45426;44.726;10.390;2022-08-25T01:42:52;100508.91;;;24.14;100.00
59608;BME280;45426;44.726;10.390;2022-08-25T01:45:19;100519.38;;;23.52;100.00
59608;BME280;45426;44.726;10.390;2022-08-25T01:47:44;100523.53;;;23.40;100.00
59608;BME280;45426;44.726;10.390;2022-08-25T01:50:10;100516.00;;;23.68;100.00
59608;BME280;45426;44.726;10.390;2022-08-25T01:55:29;100522.94;;;24.07;100.00
59608;BME280;45426;44.726;10.390;2022-08-25T01:58:16;100522.34;;;24.16;100.00
59608;BME280;45426;44.726;10.390;2022-08-25T02:00:45;100518.03;;;24.15;100.00
59608;BME280;45426;44.726;10.390;2022-08-25T02:03:11;100516.81;;;24.16;100.00
59608;BME280;45426;44.726;10.390;2022-08-25T02:05:36;100510.31;;;24.26;100.00
59608;BME280;45426;44.726;10.390;2022-08-25T02:08:02;100524.34;;;23.92;100.00
59608;BME280;45426;44.726;10.390;2022-08-25T02:10:27;100516.97;;;23.54;100.00
59608;BME280;45426;44.726;10.390;2022-08-25T02:12:53;100515.09;;;23.75;100.00
59608;BME280;45426;44.726;10.390;2022-08-25T02:15:19;100516.63;;;23.79;100.00
59608;BME280;45426;44.726;10.390;2022-08-25T02:17:44;100516.00;;;23.68;100.00
59608;BME280;45426;44.726;10.390;2022-08-25T02:20:10;100518.28;;;23.73;100.00
59608;BME280;45426;44.726;10.390;2022-08-25T02:22:35;100519.16;;;23.94;100.00
59608;BME280;45426;44.726;10.390;2022-08-25T02:25:01;100519.22;;;23.90;100.00
59608;BME280;45426;44.726;10.390;2022-08-25T02:27:27;100513.84;;;24.03;100.00
59608;BME280;45426;44.726;10.390;2022-08-25T02:29:52;100519.53;;;23.96;100.00
59608;BME280;45426;44.726;10.390;2022-08-25T02:32:17;100519.59;;;23.92;100.00
59608;BME280;45426;44.726;10.390;2022-08-25T02:34:43;100508.25;;;23.56;100.00
59608;BME280;45426;44.726;10.390;2022-08-25T02:37:08;100510.16;;;23.62;100.00
59608;BME280;45426;44.726;10.390;2022-08-25T02:39:34;100517.97;;;22.79;100.00
59608;BME280;45426;44.726;10.390;2022-08-25T02:42:00;100517.53;;;23.15;100.00
59608;BME280;45426;44.726;10.390;2022-08-25T02:44:26;100515.97;;;22.45;100.00
59608;BME280;45426;44.726;10.390;2022-08-25T02:46:51;100519.34;;;22.94;100.00
59608;BME280;45426;44.726;10.390;2022-08-25T02:49:17;100517.31;;;22.98;100.00
59608;BME280;45426;44.726;10.390;2022-08-25T02:51:42;100509.28;;;22.39;100.00
59608;BME280;45426;44.726;10.390;2022-08-25T02:54:23;100519.69;;;22.27;100.00
59608;BME280;45426;44.726;10.390;2022-08-25T02:56:50;100512.59;;;22.23;100.00
59608;BME280;45426;44.726;10.390;2022-08-25T02:59:15;100516.25;;;22.58;100.00
59608;BME280;45426;44.726;10.390;2022-08-25T03:01:42;100519.28;;;23.32;100.00
59608;BME280;45426;44.726;10.390;2022-08-25T03:04:07;100522.63;;;23.47;100.00
59608;BME280;45426;44.726;10.390;2022-08-25T03:06:33;100511.13;;;23.49;100.00
59608;BME280;45426;44.726;10.390;2022-08-25T03:08:59;100516.72;;;23.45;100.00
59608;BME280;45426;44.726;10.390;2022-08-25T03:11:26;100514.63;;;23.25;100.00
59608;BME280;45426;44.726;10.390;2022-08-25T03:13:52;100520.72;;;23.13;100.00
59608;BME280;45426;44.726;10.390;2022-08-25T03:16:18;100520.38;;;22.77;100.00
59608;BME280;45426;44.726;10.390;2022-08-25T03:18:44;100511.50;;;22.13;100.00
59608;BME280;45426;44.726;10.390;2022-08-25T03:21:10;100532.31;;;21.80;100.00
59608;BME280;45426;44.726;10.390;2022-08-25T03:23:37;100526.25;;;21.99;100.00
59608;BME280;45426;44.726;10.390;2022-08-25T03:26:02;100521.91;;;21.98;100.00
59608;BME280;45426;44.726;10.390;2022-08-25T03:28:47;100531.19;;;21.77;100.00
59608;BME280;45426;44.726;10.390;2022-08-25T03:31:12;100524.53;;;22.13;100.00
59608;BME280;45426;44.726;10.390;2022-08-25T03:33:37;100530.19;;;22.81;100.00
59608;BME280;45426;44.726;10.390;2022-08-25T03:36:05;100527.22;;;22.65;100.00
59608;BME280;45426;44.726;10.390;2022-08-25T03:38:31;100528.28;;;22.78;100.00
59608;BME280;45426;44.726;10.390;2022-08-25T03:40:56;100524.84;;;22.98;100.00
59608;BME280;45426;44.726;10.390;2022-08-25T03:43:21;100527.75;;;22.87;100.00
59608;BME280;45426;44.726;10.390;2022-08-25T03:45:47;100529.34;;;22.88;100.00
59608;BME280;45426;44.726;10.390;2022-08-25T03:48:13;100529.19;;;22.64;100.00
59608;BME280;45426;44.726;10.390;2022-08-25T03:50:46;100527.78;;;22.49;100.00
59608;BME280;45426;44.726;10.390;2022-08-25T03:53:12;100516.94;;;22.65;100.00
59608;BME280;45426;44.726;10.390;2022-08-25T03:55:39;100510.88;;;22.74;100.00
59608;BME280;45426;44.726;10.390;2022-08-25T03:58:05;100513.84;;;22.60;100.00
59608;BME280;45426;44.726;10.390;2022-08-25T04:00:30;100511.50;;;22.89;100.00
59608;BME280;45426;44.726;10.390;2022-08-25T04:02:56;100509.09;;;22.91;100.00
59608;BME280;45426;44.726;10.390;2022-08-25T04:05:21;100509.88;;;22.95;100.00
59608;BME280;45426;44.726;10.390;2022-08-25T04:07:47;100509.38;;;23.00;100.00
59608;BME280;45426;44.726;10.390;2022-08-25T04:10:12;100510.97;;;23.01;100.00
59608;BME280;45426;44.726;10.390;2022-08-25T04:12:38;100509.69;;;23.10;100.00
59608;BME280;45426;44.726;10.390;2022-08-25T04:15:05;100514.41;;;23.13;100.00
59608;BME280;45426;44.726;10.390;2022-08-25T04:17:31;100526.31;;;23.10;100.00
59608;BME280;45426;44.726;10.390;2022-08-25T04:19:57;100525.03;;;23.18;100.00
59608;BME280;45426;44.726;10.390;2022-08-25T04:22:22;100525.22;;;23.03;100.00
59608;BME280;45426;44.726;10.390;2022-08-25T04:24:48;100511.22;;;23.14;100.00
59608;BME280;45426;44.726;10.390;2022-08-25T04:27:14;100513.41;;;22.20;100.00
59608;BME280;45426;44.726;10.390;2022-08-25T04:29:39;100517.34;;;21.77;100.00
59608;BME280;45426;44.726;10.390;2022-08-25T04:32:05;100524.09;;;22.18;100.00
59608;BME280;45426;44.726;10.390;2022-08-25T04:34:30;100517.38;;;22.60;100.00
59608;BME280;45426;44.726;10.390;2022-08-25T04:36:57;100520.34;;;22.80;100.00
59608;BME280;45426;44.726;10.390;2022-08-25T04:39:22;100522.59;;;22.89;100.00
59608;BME280;45426;44.726;10.390;2022-08-25T04:41:49;100517.00;;;22.93;100.00
59608;BME280;45426;44.726;10.390;2022-08-25T04:44:15;100529.88;;;22.38;100.00
59608;BME280;45426;44.726;10.390;2022-08-25T04:46:41;100532.69;;;22.34;100.00
59608;BME280;45426;44.726;10.390;2022-08-25T04:49:06;100521.81;;;22.88;100.00
59608;BME280;45426;44.726;10.390;2022-08-25T04:51:38;100535.09;;;23.04;100.00
59608;BME280;45426;44.726;10.390;2022-08-25T04:54:06;100526.34;;;23.06;100.00
59608;BME280;45426;44.726;10.390;2022-08-25T04:56:33;100523.53;;;22.41;100.00
59608;BME280;45426;44.726;10.390;2022-08-25T04:59:09;100525.56;;;23.05;100.00
59608;BME280;45426;44.726;10.390;2022-08-25T05:01:36;100525.56;;;23.05;100.00
59608;BME280;45426;44.726;10.390;2022-08-25T05:04:04;100523.22;;;23.04;100.00
59608;BME280;45426;44.726;10.390;2022-08-25T05:06:30;100520.59;;;23.24;100.00
59608;BME280;45426;44.726;10.390;2022-08-25T05:08:57;100522.22;;;23.21;100.00
59608;BME280;45426;44.726;10.390;2022-08-25T05:11:24;100529.84;;;23.14;100.00
59608;BME280;45426;44.726;10.390;2022-08-25T05:13:51;100525.72;;;23.53;100.00
59608;BME280;45426;44.726;10.390;2022-08-25T05:16:19;100524.16;;;23.52;100.00
59608;BME280;45426;44.726;10.390;2022-08-25T05:18:44;100523.75;;;23.77;100.00
59608;BME280;45426;44.726;10.390;2022-08-25T05:21:13;100524.78;;;23.63;100.00
59608;BME280;45426;44.726;10.390;2022-08-25T05:23:40;100519.16;;;23.12;100.00
59608;BME280;45426;44.726;10.390;2022-08-25T05:26:08;100514.53;;;23.60;100.00
59608;BME280;45426;44.726;10.390;2022-08-25T05:28:35;100516.34;;;23.43;100.00
59608;BME280;45426;44.726;10.390;2022-08-25T05:31:02;100517.03;;;23.51;100.00
59608;BME280;45426;44.726;10.390;2022-08-25T05:33:29;100518.38;;;23.12;100.00
59608;BME280;45426;44.726;10.390;2022-08-25T05:35:54;100509.09;;;22.91;100.00
59608;BME280;45426;44.726;10.390;2022-08-25T05:38:20;100514.00;;;23.41;100.00
59608;BME280;45426;44.726;10.390;2022-08-25T05:40:45;100510.91;;;23.36;100.00
59608;BME280;45426;44.726;10.390;2022-08-25T05:43:11;100517.19;;;23.94;100.00
59608;BME280;45426;44.726;10.390;2022-08-25T05:45:39;100512.63;;;24.28;100.00
59608;BME280;45426;44.726;10.390;2022-08-25T05:48:04;100515.94;;;24.42;100.00
59608;BME280;45426;44.726;10.390;2022-08-25T05:50:30;100515.31;;;23.88;100.00
59608;BME280;45426;44.726;10.390;2022-08-25T05:52:55;100514.59;;;24.51;100.00
59608;BME280;45426;44.726;10.390;2022-08-25T05:55:20;100517.28;;;24.34;100.00
59608;BME280;45426;44.726;10.390;2022-08-25T05:57:46;100511.63;;;24.82;100.00
59608;BME280;45426;44.726;10.390;2022-08-25T06:00:12;100517.69;;;24.56;100.00
59608;BME280;45426;44.726;10.390;2022-08-25T06:02:38;100514.94;;;24.76;100.00
59608;BME280;45426;44.726;10.390;2022-08-25T06:05:17;100513.28;;;24.79;100.00
59608;BME280;45426;44.726;10.390;2022-08-25T06:07:45;100508.75;;;25.05;100.00
59608;BME280;45426;44.726;10.390;2022-08-25T06:10:12;100515.66;;;25.17;100.00
59608;BME280;45426;44.726;10.390;2022-08-25T06:12:40;100505.31;;;25.54;100.00
59608;BME280;45426;44.726;10.390;2022-08-25T06:15:06;100506.53;;;25.16;100.00
59608;BME280;45426;44.726;10.390;2022-08-25T06:17:32;100498.72;;;25.48;100.00
59608;BME280;45426;44.726;10.390;2022-08-25T06:19:59;100500.28;;;25.65;100.00
59608;BME280;45426;44.726;10.390;2022-08-25T06:22:27;100495.34;;;26.06;100.00
59608;BME280;45426;44.726;10.390;2022-08-25T06:24:52;100493.56;;;25.79;100.00
59608;BME280;45426;44.726;10.390;2022-08-25T06:27:18;100485.81;;;26.49;100.00
59608;BME280;45426;44.726;10.390;2022-08-25T06:29:43;100489.38;;;26.20;100.00
59608;BME280;45426;44.726;10.390;2022-08-25T06:32:08;100482.13;;;26.39;100.00
59608;BME280;45426;44.726;10.390;2022-08-25T06:34:34;100485.25;;;26.83;100.00
59608;BME280;45426;44.726;10.390;2022-08-25T06:37:00;100483.22;;;27.26;100.00
59608;BME280;45426;44.726;10.390;2022-08-25T06:39:25;100485.06;;;27.80;100.00
59608;BME280;45426;44.726;10.390;2022-08-25T06:41:54;100475.91;;;27.16;100.00
59608;BME280;45426;44.726;10.390;2022-08-25T06:44:21;100473.88;;;27.93;100.00
59608;BME280;45426;44.726;10.390;2022-08-25T06:46:47;100473.44;;;28.74;100.00
59608;BME280;45426;44.726;10.390;2022-08-25T06:49:13;100472.97;;;29.97;100.00
59608;BME280;45426;44.726;10.390;2022-08-25T06:51:38;100474.81;;;32.22;100.00
59608;BME280;45426;44.726;10.390;2022-08-25T06:54:05;100466.09;;;36.14;100.00
59608;BME280;45426;44.726;10.390;2022-08-25T06:56:31;100464.13;;;38.75;100.00
59608;BME280;45426;44.726;10.390;2022-08-25T06:59:00;100464.66;;;36.53;100.00
59608;BME280;45426;44.726;10.390;2022-08-25T07:01:25;100463.16;;;38.37;100.00
59608;BME280;45426;44.726;10.390;2022-08-25T07:03:53;100463.25;;;36.03;100.00
59608;BME280;45426;44.726;10.390;2022-08-25T07:06:22;100457.59;;;40.87;100.00
59608;BME280;45426;44.726;10.390;2022-08-25T07:08:49;100458.91;;;38.07;100.00
59608;BME280;45426;44.726;10.390;2022-08-25T07:11:15;100458.63;;;37.58;100.00
59608;BME280;45426;44.726;10.390;2022-08-25T07:13:41;100457.59;;;37.61;100.00
59608;BME280;45426;44.726;10.390;2022-08-25T07:16:06;100460.63;;;39.87;100.00
59608;BME280;45426;44.726;10.390;2022-08-25T07:18:33;100461.09;;;38.32;100.00
59608;BME280;45426;44.726;10.390;2022-08-25T07:20:59;100454.38;;;42.95;100.00
59608;BME280;45426;44.726;10.390;2022-08-25T07:23:25;100463.91;;;36.86;100.00
59608;BME280;45426;44.726;10.390;2022-08-25T07:25:52;100452.72;;;37.56;100.00
59608;BME280;45426;44.726;10.390;2022-08-25T07:28:18;100464.94;;;36.95;100.00
59608;BME280;45426;44.726;10.390;2022-08-25T07:30:44;100452.09;;;40.25;100.00
59608;BME280;45426;44.726;10.390;2022-08-25T07:33:10;100451.03;;;36.63;100.00
59608;BME280;45426;44.726;10.390;2022-08-25T07:35:36;100442.69;;;38.02;100.00
59608;BME280;45426;44.726;10.390;2022-08-25T07:38:03;100447.56;;;37.49;100.00
59608;BME280;45426;44.726;10.390;2022-08-25T07:40:33;100449.38;;;38.82;100.00
59608;BME280;45426;44.726;10.390;2022-08-25T07:43:02;100449.16;;;39.30;100.00
59608;BME280;45426;44.726;10.390;2022-08-25T07:45:30;100448.50;;;40.24;100.00
59608;BME280;45426;44.726;10.390;2022-08-25T07:47:58;100449.56;;;42.27;100.00
59608;BME280;45426;44.726;10.390;2022-08-25T07:50:24;100450.75;;;41.23;100.00
59608;BME280;45426;44.726;10.390;2022-08-25T07:52:50;100451.81;;;38.97;100.00
59608;BME280;45426;44.726;10.390;2022-08-25T07:55:16;100457.13;;;40.00;100.00
59608;BME280;45426;44.726;10.390;2022-08-25T07:57:41;100449.19;;;37.97;100.00
59608;BME280;45426;44.726;10.390;2022-08-25T08:00:08;100451.19;;;37.44;100.00
59608;BME280;45426;44.726;10.390;2022-08-25T08:02:37;100446.25;;;40.68;100.00
59608;BME280;45426;44.726;10.390;2022-08-25T08:05:03;100453.34;;;42.64;100.00
59608;BME280;45426;44.726;10.390;2022-08-25T08:07:29;100444.03;;;37.26;100.00
59608;BME280;45426;44.726;10.390;2022-08-25T08:09:56;100444.66;;;39.84;100.00
59608;BME280;45426;44.726;10.390;2022-08-25T08:12:23;100446.22;;;40.04;100.00
59608;BME280;45426;44.726;10.390;2022-08-25T08:14:49;100450.50;;;41.47;100.00
59608;BME280;45426;44.726;10.390;2022-08-25T08:17:15;100442.72;;;42.30;100.00
59608;BME280;45426;44.726;10.390;2022-08-25T08:19:42;100441.13;;;38.49;100.00
59608;BME280;45426;44.726;10.390;2022-08-25T08:22:07;100444.34;;;39.68;100.00
59608;BME280;45426;44.726;10.390;2022-08-25T08:24:36;100447.19;;;38.94;100.00
59608;BME280;45426;44.726;10.390;2022-08-25T08:27:07;100439.53;;;35.78;100.00
59608;BME280;45426;44.726;10.390;2022-08-25T08:29:34;100447.16;;;34.28;100.00
59608;BME280;45426;44.726;10.390;2022-08-25T08:32:00;100447.19;;;34.07;100.00
59608;BME280;45426;44.726;10.390;2022-08-25T08:34:25;100446.91;;;34.05;100.00
59608;BME280;45426;44.726;10.390;2022-08-25T08:36:51;100444.03;;;33.58;100.00
59608;BME280;45426;44.726;10.390;2022-08-25T08:39:17;100440.47;;;33.07;100.00
59608;BME280;45426;44.726;10.390;2022-08-25T08:42:12;100440.72;;;33.60;100.00
59608;BME280;45426;44.726;10.390;2022-08-25T08:52:46;100446.19;;;33.28;100.00
59608;BME280;45426;44.726;10.390;2022-08-25T08:55:29;100441.97;;;31.89;100.00
59608;BME280;45426;44.726;10.390;2022-08-25T08:57:57;100430.78;;;31.32;100.00
59608;BME280;45426;44.726;10.390;2022-08-25T09:00:24;100434.03;;;32.57;100.00
59608;BME280;45426;44.726;10.390;2022-08-25T09:03:11;100435.41;;;33.26;100.00
59608;BME280;45426;44.726;10.390;2022-08-25T09:05:47;100438.03;;;33.30;100.00
59608;BME280;45426;44.726;10.390;2022-08-25T09:08:15;100430.53;;;32.17;100.00
59608;BME280;45426;44.726;10.390;2022-08-25T09:11:02;100424.72;;;32.50;100.00
59608;BME280;45426;44.726;10.390;2022-08-25T09:16:17;100432.47;;;31.05;100.00
59608;BME280;45426;44.726;10.390;2022-08-25T09:24:25;100433.59;;;33.44;100.00
59608;BME280;45426;44.726;10.390;2022-08-25T09:27:28;100428.06;;;32.99;100.00
59608;BME280;45426;44.726;10.390;2022-08-25T09:30:03;100434.25;;;33.33;100.00
59608;BME280;45426;44.726;10.390;2022-08-25T09:32:33;100425.91;;;32.74;100.00
59608;BME280;45426;44.726;10.390;2022-08-25T09:35:00;100427.41;;;32.15;100.00
59608;BME280;45426;44.726;10.390;2022-08-25T09:37:27;100417.75;;;31.20;100.00
59608;BME280;45426;44.726;10.390;2022-08-25T09:39:52;100412.03;;;32.55;100.00
59608;BME280;45426;44.726;10.390;2022-08-25T09:42:19;100416.88;;;32.55;100.00
59608;BME280;45426;44.726;10.390;2022-08-25T09:44:45;100408.31;;;33.50;100.00
59608;BME280;45426;44.726;10.390;2022-08-25T09:47:22;100412.56;;;33.60;100.00
59608;BME280;45426;44.726;10.390;2022-08-25T09:50:02;100409.59;;;32.33;100.00
59608;BME280;45426;44.726;10.390;2022-08-25T09:55:39;100385.59;;;32.97;100.00
59608;BME280;45426;44.726;10.390;2022-08-25T09:57:48;100390.38;;;33.26;100.00
59608;BME280;45426;44.726;10.390;2022-08-25T10:00:40;100396.78;;;32.02;100.00
59608;BME280;45426;44.726;10.390;2022-08-25T10:03:26;100387.47;;;31.72;100.00
59608;BME280;45426;44.726;10.390;2022-08-25T10:08:25;100396.78;;;32.02;100.00
59608;BME280;45426;44.726;10.390;2022-08-25T10:10:55;100385.91;;;33.20;100.00
59608;BME280;45426;44.726;10.390;2022-08-25T10:13:39;100388.75;;;33.61;100.00
59608;BME280;45426;44.726;10.390;2022-08-25T10:16:06;100391.25;;;32.82;100.00
59608;BME280;45426;44.726;10.390;2022-08-25T10:18:32;100379.63;;;32.45;100.00
59608;BME280;45426;44.726;10.390;2022-08-25T10:21:12;100384.41;;;33.04;100.00
59608;BME280;45426;44.726;10.390;2022-08-25T10:23:48;100379.16;;;33.12;100.00
59608;BME280;45426;44.726;10.390;2022-08-25T10:29:21;100381.03;;;33.76;100.00
59608;BME280;45426;44.726;10.390;2022-08-25T10:32:05;100376.38;;;33.73;100.00
59608;BME280;45426;44.726;10.390;2022-08-25T10:53:57;100345.47;;;33.17;100.00
59608;BME280;45426;44.726;10.390;2022-08-25T10:56:33;100341.72;;;33.05;100.00
59608;BME280;45426;44.726;10.390;2022-08-25T10:59:12;100343.66;;;33.81;100.00
59608;BME280;45426;44.726;10.390;2022-08-25T11:04:24;100327.22;;;32.12;100.00
59608;BME280;45426;44.726;10.390;2022-08-25T11:06:57;100329.00;;;32.75;100.00
59608;BME280;45426;44.726;10.390;2022-08-25T11:09:29;100330.47;;;33.05;100.00
59608;BME280;45426;44.726;10.390;2022-08-25T11:12:23;100319.75;;;33.10;100.00
59608;BME280;45426;44.726;10.390;2022-08-25T11:14:54;100313.50;;;33.61;100.00
59608;BME280;45426;44.726;10.390;2022-08-25T11:17:25;100312.84;;;32.90;100.00
59608;BME280;45426;44.726;10.390;2022-08-25T11:19:56;100304.09;;;32.53;100.00
59608;BME280;45426;44.726;10.390;2022-08-25T11:22:46;100313.84;;;32.37;100.00
59608;BME280;45426;44.726;10.390;2022-08-25T11:25:34;100308.66;;;32.50;100.00
59608;BME280;45426;44.726;10.390;2022-08-25T11:28:10;100318.41;;;33.67;100.00
59608;BME280;45426;44.726;10.390;2022-08-25T11:30:38;100308.50;;;33.51;100.00
59608;BME280;45426;44.726;10.390;2022-08-25T11:33:04;100301.84;;;34.00;100.00
59608;BME280;45426;44.726;10.390;2022-08-25T11:35:34;100298.00;;;33.98;100.00
59608;BME280;45426;44.726;10.390;2022-08-25T11:38:14;100296.00;;;33.31;100.00
59608;BME280;45426;44.726;10.390;2022-08-25T11:47:20;100291.56;;;34.23;100.00
59608;BME280;45426;44.726;10.390;2022-08-25T11:49:56;100300.16;;;32.59;100.00
59608;BME280;45426;44.726;10.390;2022-08-25T11:55:21;100297.53;;;32.91;100.00
59608;BME280;45426;44.726;10.390;2022-08-25T11:57:51;100295.66;;;32.67;100.00
59608;BME280;45426;44.726;10.390;2022-08-25T12:00:39;100294.75;;;33.12;100.00
59608;BME280;45426;44.726;10.390;2022-08-25T12:11:49;100286.09;;;32.44;100.00
59608;BME280;45426;44.726;10.390;2022-08-25T12:14:37;100287.50;;;32.90;100.00
59608;BME280;45426;44.726;10.390;2022-08-25T12:17:17;100285.59;;;32.46;100.00
59608;BME280;45426;44.726;10.390;2022-08-25T12:33:31;100282.59;;;32.49;100.00
59608;BME280;45426;44.726;10.390;2022-08-25T12:36:06;100277.81;;;32.56;100.00
59608;BME280;45426;44.726;10.390;2022-08-25T12:41:23;100274.44;;;33.49;100.00
59608;BME280;45426;44.726;10.390;2022-08-25T12:43:51;100280.84;;;32.87;100.00
59608;BME280;45426;44.726;10.390;2022-08-25T12:49:31;100276.50;;;33.74;100.00
59608;BME280;45426;44.726;10.390;2022-08-25T12:52:05;100276.13;;;33.40;100.00
59608;BME280;45426;44.726;10.390;2022-08-25T13:00:19;100257.84;;;32.68;100.00
59608;BME280;45426;44.726;10.390;2022-08-25T13:06:24;100269.84;;;32.69;100.00
59608;BME280;45426;44.726;10.390;2022-08-25T13:09:24;100257.50;;;33.02;100.00
59608;BME280;45426;44.726;10.390;2022-08-25T13:14:36;100259.41;;;33.57;100.00
59608;BME280;45426;44.726;10.390;2022-08-25T13:17:02;100254.91;;;33.39;100.00
59608;BME280;45426;44.726;10.390;2022-08-25T13:19:28;100248.53;;;33.65;100.00
59608;BME280;45426;44.726;10.390;2022-08-25T13:21:55;100257.16;;;33.61;100.00
59608;BME280;45426;44.726;10.390;2022-08-25T13:24:27;100249.75;;;33.38;100.00
59608;BME280;45426;44.726;10.390;2022-08-25T13:27:03;100238.94;;;33.83;100.00
59608;BME280;45426;44.726;10.390;2022-08-25T13:29:31;100245.59;;;33.80;100.00
59608;BME280;45426;44.726;10.390;2022-08-25T13:31:58;100236.22;;;33.42;100.00
59608;BME280;45426;44.726;10.390;2022-08-25T13:34:27;100232.00;;;33.78;100.00
59608;BME280;45426;44.726;10.390;2022-08-25T13:36:54;100238.03;;;32.98;100.00
59608;BME280;45426;44.726;10.390;2022-08-25T13:39:39;100230.63;;;34.00;100.00
59608;BME280;45426;44.726;10.390;2022-08-25T13:42:10;100226.56;;;33.49;100.00
59608;BME280;45426;44.726;10.390;2022-08-25T13:44:37;100219.84;;;33.67;100.00
59608;BME280;45426;44.726;10.390;2022-08-25T13:47:15;100213.13;;;33.90;100.00
59608;BME280;45426;44.726;10.390;2022-08-25T13:49:46;100216.28;;;33.45;100.00
59608;BME280;45426;44.726;10.390;2022-08-25T13:52:25;100205.41;;;33.59;100.00
59608;BME280;45426;44.726;10.390;2022-08-25T13:54:51;100205.59;;;33.50;100.00
59608;BME280;45426;44.726;10.390;2022-08-25T13:57:24;100200.69;;;32.98;100.00
59608;BME280;45426;44.726;10.390;2022-08-25T14:00:05;100202.28;;;33.25;100.00
59608;BME280;45426;44.726;10.390;2022-08-25T14:02:49;100202.56;;;33.06;100.00
59608;BME280;45426;44.726;10.390;2022-08-25T14:05:28;100199.81;;;32.92;100.00
59608;BME280;45426;44.726;10.390;2022-08-25T14:07:56;100199.50;;;33.57;100.00
59608;BME280;45426;44.726;10.390;2022-08-25T14:10:39;100194.53;;;33.46;100.00
59608;BME280;45426;44.726;10.390;2022-08-25T14:13:28;100191.34;;;33.33;100.00
59608;BME280;45426;44.726;10.390;2022-08-25T14:15:51;100203.84;;;32.85;100.00
59608;BME280;45426;44.726;10.390;2022-08-25T14:18:20;100204.13;;;32.87;100.00
59608;BME280;45426;44.726;10.390;2022-08-25T14:20:49;100194.22;;;33.38;100.00
59608;BME280;45426;44.726;10.390;2022-08-25T14:23:19;100187.91;;;33.49;100.00